Terminal Aerodrome Forecast
Issued by NWS Green Bay, WI

Home | Current Version | Previous Version | Graphics & Text | Print | Product List | Glossary On
Versions: 1 2 3 4 5 6 7 8 9 10 11 12 13 14 15 16 17 18 19 20 21 22 23 24
093
FTUS43 KGRB 200520
TAFGRB
TAF
KGRB 200520Z 2006/2106 17006KT P6SM SCT100
     FM201000 VRB03KT 4SM BR SCT012 BKN100
      TEMPO 2011/2015 BKN012
     FM201600 34007KT P6SM SCT025 BKN100
     FM201800 02011KT P6SM BKN100
     FM210100 VRB03KT P6SM SCT100=

USA.gov is the U.S. government's official web portal to all federal, state and local government web resources and services.